Terminal Aerodrome Forecast
Issued by NWS

Home | Current Version | Previous Version | Text Only | Print | Product List | Glossary On
Versions: 1 2 3 4 5 6 7 8 9 10 11 12 13 14
000
FTUS45 KRIW 231100
TAFLND
TAF
KLND 231140Z 2312/2412 VRB05KT P6SM VCFG SCT025 BKN060
      TEMPO 2312/2313 5SM BR FEW005
     FM231600 VRB05KT P6SM SCT080 BKN120
     FM231900 26010KT P6SM VCSH SCT050 BKN070
     FM240400 35007KT P6SM BKN050
     FM240900 32005KT P6SM BKN025=

USA.gov is the U.S. government's official web portal to all federal, state and local government web resources and services.